createdAt,value
2022-11-01T00:02:09.385Z,99746.38
2022-11-01T00:04:36.419Z,99740.81
2022-11-01T00:07:03.832Z,99758.94
2022-11-01T00:09:30.766Z,99755.66
2022-11-01T00:11:57.790Z,99755.44
2022-11-01T00:14:24.807Z,99756.84
2022-11-01T00:16:51.746Z,99754.13
2022-11-01T00:19:18.760Z,99757.19
2022-11-01T00:21:45.878Z,99752.97
2022-11-01T00:24:12.812Z,99759.88
2022-11-01T00:26:40.440Z,99767.28
2022-11-01T00:29:07.384Z,99761.44
2022-11-01T00:31:34.413Z,99767.94
2022-11-01T00:34:03.955Z,99770.38
2022-11-01T00:36:31.078Z,99769.22
2022-11-01T00:38:58.097Z,99767.66
2022-11-01T00:41:25.017Z,99771.59
2022-11-01T00:43:51.950Z,99766.44
2022-11-01T00:46:19.387Z,99766.44
2022-11-01T00:48:46.320Z,99767.66
2022-11-01T00:51:13.239Z,99779.53
2022-11-01T00:53:40.230Z,99788.59
2022-11-01T00:56:08.783Z,99781.84
2022-11-01T00:58:35.927Z,99780.47
2022-11-01T01:01:03.410Z,99781.75
2022-11-01T01:03:30.736Z,99781.03
2022-11-01T01:05:57.714Z,99782.72
2022-11-01T01:08:25.413Z,99788.97
2022-11-01T01:10:52.937Z,99788.69
2022-11-01T01:13:21.144Z,99785.56
2022-11-01T01:15:48.526Z,99787.09
2022-11-01T01:18:15.800Z,99786.28
2022-11-01T01:20:42.732Z,99780.03
2022-11-01T01:23:09.598Z,99785.28
2022-11-01T01:25:42.804Z,99776.53
2022-11-01T01:28:10.372Z,99788.31
2022-11-01T01:30:41.565Z,99784.25
2022-11-01T01:33:09.933Z,99788.41
2022-11-01T01:35:38.258Z,99779.91
2022-11-01T01:38:06.396Z,99785.09
2022-11-01T01:40:34.318Z,99779.66
2022-11-01T01:43:01.278Z,99785.56
2022-11-01T01:45:36.600Z,99787.22
2022-11-01T01:48:18.942Z,99793.75
2022-11-01T01:51:00.090Z,99803.25
2022-11-01T01:53:31.588Z,99791.53
2022-11-01T01:56:03.884Z,99797.72
2022-11-01T01:58:35.819Z,99802.88
2022-11-01T02:01:02.800Z,99793.56
2022-11-01T02:03:33.097Z,99805.34
2022-11-01T02:06:10.528Z,99804.72
2022-11-01T02:08:42.109Z,99802.97
2022-11-01T02:11:10.306Z,99809.06
2022-11-01T02:13:37.969Z,99801.88
2022-11-01T02:16:23.528Z,99804.09
2022-11-01T02:19:11.998Z,99807.38
2022-11-01T02:21:38.837Z,99813.19
2022-11-01T02:24:27.449Z,99805.53
2022-11-01T02:27:15.569Z,99814.41
2022-11-01T02:29:54.377Z,99809.44
2022-11-01T02:32:39.974Z,99813.94
2022-11-01T02:35:15.733Z,99816.97
2022-11-01T02:37:53.908Z,99826.94
2022-11-01T02:40:33.530Z,99827.84
2022-11-01T02:43:10.209Z,99828.41
2022-11-01T02:45:42.034Z,99822.69
2022-11-01T02:48:09.186Z,99834.69
2022-11-01T02:50:50.759Z,99826.19
2022-11-01T02:53:17.645Z,99829.28
2022-11-01T02:58:22.190Z,99826.84
2022-11-01T03:00:49.238Z,99835.94
2022-11-01T03:03:22.160Z,99834.84
2022-11-01T03:05:57.848Z,99840.94
2022-11-01T03:08:47.103Z,99835.59
2022-11-01T03:11:17.820Z,99840.09
2022-11-01T03:14:00.898Z,99840.56
2022-11-01T03:17:00.799Z,99838.53
2022-11-01T03:19:49.428Z,99848.69
2022-11-01T03:22:23.712Z,99841.66
2022-11-01T03:25:02.383Z,99820.66
2022-11-01T03:27:45.115Z,99841.13
2022-11-01T03:30:14.970Z,99838.53
2022-11-01T03:32:47.584Z,99842.78
2022-11-01T03:35:24.250Z,99840.38
2022-11-01T03:37:55.120Z,99832.91
2022-11-01T03:40:25.175Z,99837.25
2022-11-01T03:42:55.792Z,99832.81
2022-11-01T03:45:25.833Z,99832.09
2022-11-01T03:47:52.929Z,99839.66
2022-11-01T03:50:24.476Z,99842.25
2022-11-01T03:52:51.507Z,99842.34
2022-11-01T03:55:19.927Z,99848.56
2022-11-01T03:57:48.845Z,99843.13
2022-11-01T04:00:19.211Z,99848.66
2022-11-01T04:02:46.301Z,99839.06
2022-11-01T04:05:13.436Z,99842.69
2022-11-01T04:07:40.492Z,99852.75
2022-11-01T04:10:08.245Z,99837.03
2022-11-01T04:12:35.134Z,99844.69
2022-11-01T04:15:21.072Z,99841.94
2022-11-01T04:18:06.666Z,99840.63
2022-11-01T04:20:34.084Z,99842.59
2022-11-01T04:23:02.199Z,99835.56
2022-11-01T04:25:30.452Z,99843.22
2022-11-01T04:27:58.579Z,99844.13
2022-11-01T04:30:27.496Z,99853.81
2022-11-01T04:32:54.883Z,99848.81
2022-11-01T04:35:23.141Z,99861.91
2022-11-01T04:37:57.036Z,99846.72
2022-11-01T04:40:24.596Z,99845.25
2022-11-01T04:42:54.903Z,99853.44
2022-11-01T04:45:22.096Z,99850.78
2022-11-01T04:47:52.568Z,99855.69
2022-11-01T04:50:20.496Z,99856.75
2022-11-01T04:52:47.983Z,99858.34
2022-11-01T04:55:14.971Z,99860.84
2022-11-01T04:57:42.979Z,99855.41
2022-11-01T05:00:12.781Z,99865.56
2022-11-01T05:02:40.675Z,99867.19
2022-11-01T05:05:09.275Z,99861.03
2022-11-01T05:07:36.212Z,99859.00
2022-11-01T05:10:04.124Z,99861.03
2022-11-01T05:12:31.338Z,99862.31
2022-11-01T05:14:58.198Z,99865.66
2022-11-01T05:17:25.349Z,99864.44
2022-11-01T05:19:52.307Z,99869.41
2022-11-01T05:22:19.261Z,99869.69
2022-11-01T05:24:46.278Z,99870.09
2022-11-01T05:27:13.353Z,99866.75
2022-11-01T05:29:40.324Z,99867.22
2022-11-01T05:32:07.260Z,99867.97
2022-11-01T05:34:34.158Z,99861.22
2022-11-01T05:37:01.107Z,99865.13
2022-11-01T05:39:28.286Z,99862.34
2022-11-01T05:41:58.237Z,99872.00
2022-11-01T05:44:28.702Z,99869.63
2022-11-01T05:46:55.632Z,99866.75
2022-11-01T05:49:22.798Z,99867.41
2022-11-01T05:51:49.722Z,99871.53
2022-11-01T05:54:16.680Z,99867.50
2022-11-01T05:56:44.678Z,99874.50
2022-11-01T05:59:11.648Z,99873.41
2022-11-01T06:01:38.878Z,99869.91
2022-11-01T06:04:05.904Z,99873.41
2022-11-01T06:06:33.606Z,99877.06
2022-11-01T06:09:00.762Z,99875.25
2022-11-01T06:11:27.911Z,99889.25
2022-11-01T06:13:56.808Z,99887.78
2022-11-01T06:16:25.570Z,99882.97
2022-11-01T06:18:53.170Z,99891.38
2022-11-01T06:21:26.135Z,99891.47
2022-11-01T06:23:57.139Z,99887.59
2022-11-01T06:26:24.080Z,99892.00
2022-11-01T06:28:51.229Z,99900.03
2022-11-01T06:31:18.215Z,99884.44
2022-11-01T06:33:45.138Z,99893.38
2022-11-01T06:36:12.155Z,99897.72
2022-11-01T06:38:39.031Z,99894.88
2022-11-01T06:41:05.958Z,99901.50
2022-11-01T06:43:32.864Z,99894.69
2022-11-01T06:46:01.092Z,99900.84
2022-11-01T06:48:28.871Z,99896.22
2022-11-01T06:50:56.045Z,99873.34
2022-11-01T06:53:24.533Z,99899.91
2022-11-01T06:55:52.329Z,99894.38
2022-11-01T06:58:19.312Z,99889.00
2022-11-01T07:00:46.479Z,99896.53
2022-11-01T07:03:14.719Z,99897.47
2022-11-01T07:05:41.872Z,99901.63
2022-11-01T07:08:11.773Z,99901.13
2022-11-01T07:10:41.670Z,99901.03
2022-11-01T07:13:11.707Z,99895.44
2022-11-01T07:15:39.575Z,99906.13
2022-11-01T07:18:08.453Z,99905.47
2022-11-01T07:20:41.614Z,99901.13
2022-11-01T07:23:15.029Z,99904.84
2022-11-01T07:25:42.543Z,99906.16
2022-11-01T07:28:09.971Z,99907.53
2022-11-01T07:30:36.929Z,99912.22
2022-11-01T07:33:05.365Z,99914.81
2022-11-01T07:35:32.874Z,99904.09
2022-11-01T07:38:03.836Z,99911.56
2022-11-01T07:40:33.523Z,99924.16
2022-11-01T07:43:01.179Z,99924.41
2022-11-01T07:45:30.360Z,99919.22
2022-11-01T07:48:06.642Z,99914.34
2022-11-01T07:50:34.396Z,99912.66
2022-11-01T07:53:06.348Z,99921.97
2022-11-01T07:55:34.047Z,99921.78
2022-11-01T07:58:01.322Z,99929.25
2022-11-01T08:00:28.903Z,99925.06
2022-11-01T08:03:24.125Z,99924.34
2022-11-01T08:05:51.081Z,99925.13
2022-11-01T08:08:18.176Z,99923.34
2022-11-01T08:10:45.520Z,99933.56
2022-11-01T08:13:25.315Z,99918.66
2022-11-01T08:15:53.677Z,99923.44
2022-11-01T08:18:22.702Z,99917.34
2022-11-01T08:20:50.803Z,99920.19
2022-11-01T08:23:18.067Z,99914.38
2022-11-01T08:25:45.184Z,99913.66
2022-11-01T08:28:18.298Z,99928.28
2022-11-01T08:30:47.314Z,99918.06
2022-11-01T08:33:14.888Z,99916.44
2022-11-01T08:35:45.828Z,99920.06
2022-11-01T08:38:15.894Z,99920.47
2022-11-01T08:40:42.859Z,99917.38
2022-11-01T08:43:10.227Z,99916.78
2022-11-01T08:45:37.291Z,99918.84
2022-11-01T08:48:05.389Z,99921.56
2022-11-01T08:50:34.025Z,99907.78
2022-11-01T08:53:27.016Z,99911.72
2022-11-01T08:55:57.322Z,99914.09
2022-11-01T08:58:25.077Z,99915.56
2022-11-01T09:00:52.236Z,99914.31
2022-11-01T09:03:19.149Z,99923.22
2022-11-01T09:05:46.220Z,99916.59
2022-11-01T09:08:13.174Z,99917.84
2022-11-01T09:10:40.105Z,99916.69
2022-11-01T09:13:07.695Z,99908.31
2022-11-01T09:15:34.824Z,99925.53
2022-11-01T09:18:06.239Z,99923.75
2022-11-01T09:20:33.397Z,99914.09
2022-11-01T09:23:00.916Z,99921.56
2022-11-01T09:25:28.063Z,99918.84
2022-11-01T09:27:57.317Z,99915.34
2022-11-01T09:30:25.502Z,99909.94
2022-11-01T09:32:52.578Z,99914.53
2022-11-01T09:35:19.521Z,99899.00
2022-11-01T09:37:46.677Z,99911.00
2022-11-01T09:40:15.463Z,99915.50
2022-11-01T09:42:44.741Z,99905.88
2022-11-01T09:45:21.683Z,99908.53
2022-11-01T09:47:54.130Z,99904.72
2022-11-01T09:50:27.289Z,99904.50
2022-11-01T09:52:55.594Z,99895.59
2022-11-01T09:55:30.868Z,99894.31
2022-11-01T09:58:09.263Z,99900.47
2022-11-01T10:00:43.660Z,99899.63
2022-11-01T10:03:34.600Z,99906.97
2022-11-01T10:06:22.554Z,99905.66
2022-11-01T10:09:07.656Z,99901.41
2022-11-01T10:11:49.313Z,99897.81
2022-11-01T10:14:36.136Z,99898.53
2022-11-01T10:17:19.319Z,99905.06
2022-11-01T10:19:50.906Z,99897.03
2022-11-01T10:22:33.423Z,99896.22
2022-11-01T10:25:23.155Z,99892.63
2022-11-01T10:28:02.197Z,99898.75
2022-11-01T10:30:34.913Z,99901.63
2022-11-01T10:33:26.022Z,99899.94
2022-11-01T10:36:02.944Z,99900.09
2022-11-01T10:39:10.803Z,99905.47
2022-11-01T10:41:42.521Z,99904.34
2022-11-01T10:44:24.545Z,99897.94
2022-11-01T10:46:53.226Z,99907.22
2022-11-01T10:52:35.477Z,99901.22
2022-11-01T10:55:03.552Z,99915.44
2022-11-01T10:57:34.206Z,99913.03
2022-11-01T11:00:06.604Z,99903.56
2022-11-01T11:02:52.064Z,99915.13
2022-11-01T11:05:20.809Z,99918.56
2022-11-01T11:07:48.424Z,99912.66
2022-11-01T11:10:24.426Z,99914.13
2022-11-01T11:13:06.934Z,99912.44
2022-11-01T11:15:42.143Z,99907.28
2022-11-01T11:18:19.907Z,99914.31
2022-11-01T11:20:52.497Z,99914.63
2022-11-01T11:23:23.213Z,99914.13
2022-11-01T11:25:50.940Z,99915.03
2022-11-01T11:28:26.595Z,99909.34
2022-11-01T11:30:53.817Z,99916.06
2022-11-01T11:33:24.265Z,99924.03
2022-11-01T11:35:58.278Z,99913.47
2022-11-01T11:38:43.172Z,99917.72
2022-11-01T11:41:12.369Z,99902.69
2022-11-01T11:43:42.163Z,99923.31
2022-11-01T11:46:21.163Z,99919.38
2022-11-01T11:48:54.607Z,99910.78
2022-11-01T11:51:22.755Z,99920.03
2022-11-01T11:54:15.189Z,99923.44
2022-11-01T11:56:42.258Z,99921.78
2022-11-01T11:59:20.951Z,99919.50
2022-11-01T12:01:48.409Z,99926.03
2022-11-01T12:04:19.127Z,99920.34
2022-11-01T12:06:46.859Z,99928.94
2022-11-01T12:09:46.809Z,99924.56
2022-11-01T12:12:26.676Z,99929.75
2022-11-01T12:14:55.576Z,99929.03
2022-11-01T12:17:35.028Z,99928.53
2022-11-01T12:20:21.195Z,99924.06
2022-11-01T12:23:00.434Z,99926.84
2022-11-01T12:25:27.816Z,99926.53
2022-11-01T12:28:14.601Z,99923.66
2022-11-01T12:30:43.383Z,99924.25
2022-11-01T12:33:24.867Z,99930.50
2022-11-01T12:35:55.465Z,99934.81
2022-11-01T12:39:07.905Z,99927.34
2022-11-01T12:41:47.585Z,99935.13
2022-11-01T12:44:38.198Z,99933.81
2022-11-01T12:47:12.563Z,99932.22
2022-11-01T12:49:45.882Z,99927.47
2022-11-01T12:52:46.072Z,99933.50
2022-11-01T12:55:15.344Z,99929.34
2022-11-01T12:57:45.357Z,99924.34
2022-11-01T13:00:17.379Z,99924.56
2022-11-01T13:03:04.026Z,99934.91
2022-11-01T13:05:42.788Z,99931.63
2022-11-01T13:08:21.506Z,99932.44
2022-11-01T13:10:52.401Z,99924.44
2022-11-01T13:13:30.655Z,99928.78
2022-11-01T13:16:15.561Z,99934.47
2022-11-01T13:19:16.837Z,99923.06
2022-11-01T13:21:55.989Z,99924.63
2022-11-01T13:24:36.173Z,99931.47
2022-11-01T13:27:03.093Z,99927.13
2022-11-01T13:29:41.562Z,99912.50
2022-11-01T13:32:45.578Z,99913.06
2022-11-01T13:35:21.417Z,99914.78
2022-11-01T13:38:00.673Z,99908.38
2022-11-01T13:41:04.749Z,99908.69
2022-11-01T13:44:00.030Z,99911.47
2022-11-01T13:46:35.694Z,99912.38
2022-11-01T13:49:09.119Z,99919.63
2022-11-01T13:52:08.334Z,99917.44
2022-11-01T13:54:43.707Z,99912.56
2022-11-01T13:57:15.350Z,99915.44
2022-11-01T13:59:45.206Z,99908.41
2022-11-01T14:02:27.636Z,99915.44
2022-11-01T14:04:56.152Z,99917.06
2022-11-01T14:07:24.272Z,99916.03
2022-11-01T14:09:56.019Z,99886.19
2022-11-01T14:12:36.524Z,99926.81
2022-11-01T14:15:15.432Z,99919.59
2022-11-01T14:17:57.744Z,99925.78
2022-11-01T14:20:31.699Z,99922.66
2022-11-01T14:23:19.606Z,99921.09
2022-11-01T14:25:47.074Z,99919.88
2022-11-01T14:28:17.109Z,99912.75
2022-11-01T14:30:53.555Z,99926.59
2022-11-01T14:33:22.537Z,99917.09
2022-11-01T14:35:56.247Z,99918.75
2022-11-01T14:38:52.854Z,99921.31
2022-11-01T14:41:22.065Z,99917.19
2022-11-01T14:43:56.040Z,99902.56
2022-11-01T14:46:28.923Z,99916.88
2022-11-01T14:49:05.050Z,99905.16
2022-11-01T14:51:47.571Z,99918.91
2022-11-01T14:54:28.812Z,99910.66
2022-11-01T14:56:57.965Z,99906.22
2022-11-01T14:59:32.258Z,99906.94
2022-11-01T15:02:03.279Z,99900.84
2022-11-01T15:04:41.702Z,99911.63
2022-11-01T15:07:31.473Z,99901.19
2022-11-01T15:10:01.177Z,99893.34
2022-11-01T15:12:33.715Z,99896.31
2022-11-01T15:15:01.649Z,99901.38
2022-11-01T15:17:35.561Z,99896.72
2022-11-01T15:20:13.368Z,99897.47
2022-11-01T15:22:42.694Z,99894.88
2022-11-01T15:25:21.166Z,99891.16
2022-11-01T15:27:49.887Z,99893.75
2022-11-01T15:30:26.100Z,99894.34
2022-11-01T15:33:13.851Z,99897.66
2022-11-01T15:35:41.795Z,99894.88
2022-11-01T15:38:20.614Z,99902.22
2022-11-01T15:40:50.513Z,99898.63
2022-11-01T15:43:27.574Z,99905.16
2022-11-01T15:45:59.298Z,99902.75
2022-11-01T15:48:30.879Z,99896.03
2022-11-01T15:51:01.757Z,99911.47
2022-11-01T15:53:31.143Z,99906.28
2022-11-01T15:56:15.951Z,99913.00
2022-11-01T16:01:30.002Z,99912.00
2022-11-01T16:04:04.890Z,99912.81
2022-11-01T16:06:47.003Z,99906.72
2022-11-01T16:09:26.069Z,99912.72
2022-11-01T16:11:57.708Z,99913.47
2022-11-01T16:14:37.664Z,99905.50
2022-11-01T16:17:26.621Z,99910.78
2022-11-01T16:19:53.651Z,99904.53
2022-11-01T16:22:37.040Z,99906.22
2022-11-01T16:25:07.476Z,99898.44
2022-11-01T16:27:37.620Z,99903.72
2022-11-01T16:30:10.370Z,99903.53
2022-11-01T16:32:37.672Z,99902.91
2022-11-01T16:35:31.392Z,99895.25
2022-11-01T16:37:58.458Z,99892.34
2022-11-01T16:40:31.088Z,99896.56
2022-11-01T16:42:59.704Z,99896.47
2022-11-01T16:45:26.698Z,99883.63
2022-11-01T16:47:59.458Z,99889.44
2022-11-01T16:50:26.553Z,99888.63
2022-11-01T16:52:53.838Z,99886.13
2022-11-01T16:55:22.718Z,99883.03
2022-11-01T16:57:53.419Z,99888.41
2022-11-01T17:00:20.432Z,99890.06
2022-11-01T17:02:48.066Z,99883.31
2022-11-01T17:05:21.148Z,99881.34
2022-11-01T17:07:48.130Z,99883.03
2022-11-01T17:10:21.727Z,99884.03
2022-11-01T17:12:48.715Z,99879.06
2022-11-01T17:15:16.563Z,99884.88
2022-11-01T17:17:45.792Z,99876.47
2022-11-01T17:20:24.734Z,99881.66
2022-11-01T17:22:53.790Z,99882.09
2022-11-01T17:25:23.635Z,99873.50
2022-11-01T17:27:51.890Z,99875.66
2022-11-01T17:30:21.838Z,99865.63
2022-11-01T17:32:48.819Z,99872.97
2022-11-01T17:35:16.462Z,99874.34
2022-11-01T17:37:43.503Z,99872.06
2022-11-01T17:40:22.518Z,99880.75
2022-11-01T17:42:49.456Z,99873.50
2022-11-01T17:45:16.564Z,99875.16
2022-11-01T17:47:43.964Z,99876.81
2022-11-01T17:50:15.402Z,99871.66
2022-11-01T17:52:43.140Z,99871.44
2022-11-01T17:55:11.690Z,99873.09
2022-11-01T17:57:43.636Z,99867.19
2022-11-01T18:00:11.236Z,99869.88
2022-11-01T18:02:41.411Z,99861.69
2022-11-01T18:05:11.891Z,99870.28
2022-11-01T18:07:44.175Z,99865.41
2022-11-01T18:10:18.574Z,99879.28
2022-11-01T18:13:11.765Z,99879.47
2022-11-01T18:15:47.252Z,99872.84
2022-11-01T18:18:22.429Z,99877.63
2022-11-01T18:21:11.001Z,99876.56
2022-11-01T18:23:41.992Z,99874.84
2022-11-01T18:26:30.301Z,99874.63
2022-11-01T18:29:13.634Z,99877.84
2022-11-01T18:31:45.900Z,99875.16
2022-11-01T18:34:34.653Z,99873.28
2022-11-01T18:37:11.603Z,99872.56
2022-11-01T18:39:44.563Z,99867.91
2022-11-01T18:42:17.053Z,99871.31
2022-11-01T18:44:44.654Z,99875.38
2022-11-01T18:47:23.086Z,99871.75
2022-11-01T18:49:51.093Z,99872.69
2022-11-01T18:52:19.387Z,99874.16
2022-11-01T18:54:56.564Z,99873.19
2022-11-01T18:57:24.776Z,99868.00
2022-11-01T18:59:53.608Z,99870.59
2022-11-01T19:02:27.761Z,99872.16
2022-11-01T19:05:14.283Z,99870.41
2022-11-01T19:08:08.941Z,99873.09
2022-11-01T19:10:28.741Z,99866.16
2022-11-01T19:12:56.315Z,99870.41
2022-11-01T19:15:30.829Z,99866.16
2022-11-01T19:18:00.445Z,99870.59
2022-11-01T19:20:34.661Z,99872.28
2022-11-01T19:23:04.133Z,99863.59
2022-11-01T19:25:33.346Z,99851.75
2022-11-01T19:28:22.881Z,99860.44
2022-11-01T19:30:51.407Z,99851.03
2022-11-01T19:33:39.202Z,99855.06
2022-11-01T19:36:19.601Z,99849.88
2022-11-01T19:38:48.065Z,99848.16
2022-11-01T19:41:35.412Z,99853.44
2022-11-01T19:44:08.327Z,99857.97
2022-11-01T19:46:37.217Z,99855.28
2022-11-01T19:49:19.256Z,99853.75
2022-11-01T19:51:46.493Z,99853.84
2022-11-01T19:54:14.070Z,99843.59
2022-11-01T19:56:41.156Z,99855.47
2022-11-01T19:59:13.961Z,99857.16
2022-11-01T20:01:45.457Z,99855.69
2022-11-01T20:04:28.019Z,99853.00
2022-11-01T20:07:02.000Z,99855.69
2022-11-01T20:09:33.455Z,99853.00
2022-11-01T20:12:00.356Z,99853.75
2022-11-01T20:14:27.658Z,99856.22
2022-11-01T20:16:54.638Z,99860.44
2022-11-01T20:19:21.918Z,99857.97
2022-11-01T20:21:48.843Z,99853.63
2022-11-01T20:24:16.077Z,99860.44
2022-11-01T20:26:43.429Z,99860.34
2022-11-01T20:29:10.829Z,99852.06
2022-11-01T20:31:37.833Z,99856.22
2022-11-01T20:34:04.729Z,99857.84
2022-11-01T20:36:31.805Z,99851.16
2022-11-01T20:38:58.634Z,99849.28
2022-11-01T20:41:25.479Z,99856.22
2022-11-01T20:43:52.459Z,99849.88
2022-11-01T20:46:19.448Z,99844.72
2022-11-01T20:48:46.483Z,99839.53
2022-11-01T20:51:13.914Z,99843.06
2022-11-01T20:53:41.440Z,99844.91
2022-11-01T20:56:09.221Z,99839.53
2022-11-01T20:58:42.307Z,99836.34
2022-11-01T21:01:27.377Z,99843.28
2022-11-01T21:03:55.008Z,99843.28
2022-11-01T21:06:24.162Z,99843.69
2022-11-01T21:08:51.285Z,99848.66
2022-11-01T21:11:43.881Z,99843.69
2022-11-01T21:14:20.184Z,99850.75
2022-11-01T21:16:52.904Z,99849.06
2022-11-01T21:19:21.824Z,99835.53
2022-11-01T21:21:53.803Z,99842.03
2022-11-01T21:24:31.155Z,99848.16
2022-11-01T21:27:24.660Z,99850.00
2022-11-01T21:29:52.510Z,99846.88
2022-11-01T21:32:34.650Z,99842.34
2022-11-01T21:35:19.925Z,99834.66
2022-11-01T21:37:54.456Z,99835.41
2022-11-01T21:40:28.055Z,99838.00
2022-11-01T21:42:56.253Z,99842.44
2022-11-01T21:45:33.211Z,99841.41
2022-11-01T21:48:04.668Z,99828.38
2022-11-01T21:50:31.780Z,99841.31
2022-11-01T21:52:58.688Z,99840.25
2022-11-01T21:55:25.618Z,99835.81
2022-11-01T21:57:52.557Z,99838.53
2022-11-01T22:00:19.457Z,99831.66
2022-11-01T22:02:46.419Z,99837.66
2022-11-01T22:05:13.505Z,99839.34
2022-11-01T22:07:40.431Z,99836.03
2022-11-01T22:10:07.806Z,99829.50
2022-11-01T22:12:34.743Z,99840.16
2022-11-01T22:15:01.749Z,99833.94
2022-11-01T22:17:30.281Z,99845.97
2022-11-01T22:19:57.214Z,99841.63
2022-11-01T22:22:24.187Z,99839.13
2022-11-01T22:24:51.256Z,99838.09
2022-11-01T22:27:18.237Z,99832.19
2022-11-01T22:29:45.151Z,99830.13
2022-11-01T22:32:12.294Z,99825.25
2022-11-01T22:34:39.365Z,99823.50
2022-11-01T22:37:12.706Z,99824.22
2022-11-01T22:39:39.866Z,99824.00
2022-11-01T22:42:13.427Z,99822.56
2022-11-01T22:44:42.600Z,99818.22
2022-11-01T22:47:21.977Z,99813.13
2022-11-01T22:49:53.489Z,99809.09
2022-11-01T22:52:38.998Z,99811.69
2022-11-01T22:55:11.575Z,99798.75
2022-11-01T22:58:03.267Z,99802.28
2022-11-01T23:00:39.078Z,99800.63
2022-11-01T23:03:20.725Z,99793.81
2022-11-01T23:05:54.297Z,99793.81
2022-11-01T23:08:26.785Z,99795.44
2022-11-01T23:10:54.285Z,99787.78
2022-11-01T23:13:52.164Z,99787.56
2022-11-01T23:16:25.937Z,99792.13
2022-11-01T23:18:57.601Z,99787.78
2022-11-01T23:21:25.142Z,99776.59
2022-11-01T23:23:52.222Z,99775.16
2022-11-01T23:26:20.276Z,99777.53
2022-11-01T23:28:55.590Z,99775.16
2022-11-01T23:31:24.552Z,99774.94
2022-11-01T23:33:52.447Z,99775.78
2022-11-01T23:36:29.292Z,99774.94
2022-11-01T23:39:01.734Z,99769.66
2022-11-01T23:41:38.291Z,99767.91
2022-11-01T23:44:32.917Z,99768.75
2022-11-01T23:47:23.023Z,99777.31
2022-11-01T23:50:11.531Z,99773.81
2022-11-01T23:52:43.217Z,99763.56
2022-11-01T23:55:31.945Z,99755.69
2022-11-01T23:58:12.002Z,99759.00
